createdAt,value
2024-01-06T00:01:49.112Z,16.45
2024-01-06T00:04:16.041Z,17.04
2024-01-06T00:06:42.954Z,16.91
2024-01-06T00:09:09.776Z,16.84
2024-01-06T00:11:39.602Z,17.01
2024-01-06T00:14:06.425Z,16.15
2024-01-06T00:16:33.185Z,15.46
2024-01-06T00:19:00.093Z,16.22
2024-01-06T00:21:26.966Z,16.98
2024-01-06T00:23:53.746Z,18.05
2024-01-06T00:26:20.506Z,17.73
2024-01-06T00:28:50.399Z,18.03
2024-01-06T00:31:17.292Z,17.66
2024-01-06T00:33:47.201Z,17.84
2024-01-06T00:36:14.005Z,16.49
2024-01-06T00:38:40.802Z,16.37
2024-01-06T00:41:07.570Z,16.70
2024-01-06T00:43:34.446Z,16.72
2024-01-06T00:46:01.207Z,16.48
2024-01-06T00:48:28.105Z,16.20
2024-01-06T00:50:54.989Z,16.68
2024-01-06T00:53:24.833Z,16.81
2024-01-06T00:55:51.594Z,17.75
2024-01-06T00:58:18.379Z,17.38
2024-01-06T01:00:48.321Z,18.59
2024-01-06T01:03:17.255Z,17.60
2024-01-06T01:05:47.213Z,18.36
2024-01-06T01:08:14.085Z,18.26
2024-01-06T01:10:40.873Z,17.94
2024-01-06T01:13:07.711Z,17.53
2024-01-06T01:15:34.553Z,17.16
2024-01-06T01:18:01.555Z,17.52
2024-01-06T01:20:28.517Z,17.61
2024-01-06T01:22:55.286Z,16.36
2024-01-06T01:25:22.061Z,16.95
2024-01-06T01:27:48.902Z,17.09
2024-01-06T01:30:15.954Z,17.40
2024-01-06T01:32:46.062Z,16.93
2024-01-06T01:35:16.000Z,17.06
2024-01-06T01:37:45.815Z,17.41
2024-01-06T01:40:12.735Z,17.79
2024-01-06T01:42:39.527Z,18.20
2024-01-06T01:45:06.481Z,17.96
2024-01-06T01:47:33.362Z,17.40
2024-01-06T01:50:00.356Z,17.71
2024-01-06T01:52:27.259Z,18.52
2024-01-06T01:54:54.133Z,19.67
2024-01-06T01:57:21.003Z,19.56
2024-01-06T01:59:47.849Z,18.39
2024-01-06T02:02:17.718Z,18.77
2024-01-06T02:04:47.607Z,18.98
2024-01-06T02:07:14.407Z,19.34
2024-01-06T02:09:41.306Z,19.76
2024-01-06T02:12:11.191Z,19.30
2024-01-06T02:14:38.027Z,19.53
2024-01-06T02:17:07.816Z,18.99
2024-01-06T02:19:34.704Z,18.78
2024-01-06T02:22:01.689Z,18.84
2024-01-06T02:24:28.352Z,18.87
2024-01-06T02:26:54.962Z,19.14
2024-01-06T02:29:21.557Z,18.74
2024-01-06T02:31:48.225Z,18.89
2024-01-06T02:34:15.002Z,18.12
2024-01-06T02:36:41.720Z,17.91
2024-01-06T02:39:08.416Z,17.63
2024-01-06T02:41:35.098Z,18.84
2024-01-06T02:44:01.692Z,19.44
2024-01-06T02:46:28.299Z,19.74
2024-01-06T02:48:55.005Z,18.62
2024-01-06T02:51:21.812Z,19.12
2024-01-06T02:53:48.431Z,18.64
2024-01-06T02:56:15.078Z,18.84
2024-01-06T02:58:41.678Z,18.76
2024-01-06T03:01:08.525Z,18.62
2024-01-06T03:03:35.314Z,18.63
2024-01-06T03:06:02.016Z,17.93
2024-01-06T03:08:28.664Z,18.76
2024-01-06T03:10:55.310Z,18.80
2024-01-06T03:13:21.951Z,18.51
2024-01-06T03:15:48.642Z,18.61
2024-01-06T03:18:15.583Z,19.88
2024-01-06T03:20:42.337Z,19.60
2024-01-06T03:23:09.138Z,19.93
2024-01-06T03:25:35.930Z,19.41
2024-01-06T03:28:02.675Z,19.84
2024-01-06T03:30:29.525Z,19.35
2024-01-06T03:32:56.494Z,19.36
2024-01-06T03:35:23.350Z,19.33
2024-01-06T03:37:50.220Z,19.08
2024-01-06T03:40:16.874Z,17.13
2024-01-06T03:42:43.545Z,16.98
2024-01-06T03:45:10.187Z,16.72
2024-01-06T03:47:36.943Z,18.04
2024-01-06T03:50:03.610Z,17.77
2024-01-06T03:52:30.250Z,17.72
2024-01-06T03:54:56.941Z,15.33
2024-01-06T03:57:23.755Z,15.88
2024-01-06T03:59:53.118Z,14.86
2024-01-06T04:02:19.743Z,9.84
2024-01-06T04:04:46.444Z,6.52
2024-01-06T04:07:13.101Z,7.54
2024-01-06T04:09:39.745Z,8.49
2024-01-06T04:12:06.352Z,9.57
2024-01-06T04:14:32.946Z,10.54
2024-01-06T04:16:59.574Z,10.21
2024-01-06T04:19:26.253Z,9.96
2024-01-06T04:21:52.989Z,9.89
2024-01-06T04:24:19.699Z,10.18
2024-01-06T04:26:46.467Z,9.35
2024-01-06T04:29:13.160Z,10.16
2024-01-06T04:31:39.873Z,10.55
2024-01-06T04:34:06.763Z,10.14
2024-01-06T04:36:33.533Z,9.82
2024-01-06T04:39:00.365Z,10.29
2024-01-06T04:41:27.155Z,10.16
2024-01-06T04:43:53.966Z,9.44
2024-01-06T04:46:20.762Z,8.61
2024-01-06T04:48:47.606Z,7.75
2024-01-06T04:51:17.500Z,7.61
2024-01-06T04:53:44.300Z,7.88
2024-01-06T04:56:11.065Z,7.86
2024-01-06T04:58:40.904Z,7.57
2024-01-06T05:01:07.797Z,6.42
2024-01-06T05:03:34.746Z,6.74
2024-01-06T05:06:04.651Z,7.21
2024-01-06T05:08:31.412Z,7.44
2024-01-06T05:10:58.252Z,6.45
2024-01-06T05:13:25.043Z,5.52
2024-01-06T05:15:55.097Z,5.35
2024-01-06T05:18:25.176Z,5.42
2024-01-06T05:20:52.008Z,5.50
2024-01-06T05:23:18.763Z,5.85
2024-01-06T05:25:45.549Z,5.81
2024-01-06T05:28:12.325Z,5.86
2024-01-06T05:30:39.269Z,5.63
2024-01-06T05:33:06.271Z,6.10
2024-01-06T05:35:34.453Z,5.73
2024-01-06T05:38:01.925Z,5.59
2024-01-06T05:40:31.717Z,4.41
2024-01-06T05:42:58.592Z,3.51
2024-01-06T05:45:27.518Z,3.20
2024-01-06T05:47:55.932Z,2.65
2024-01-06T05:50:22.702Z,2.57
2024-01-06T05:52:49.533Z,2.16
2024-01-06T05:55:16.319Z,2.24
2024-01-06T05:57:46.113Z,2.26
2024-01-06T06:00:15.891Z,2.48
2024-01-06T06:02:42.703Z,2.49
2024-01-06T06:05:12.514Z,2.18
2024-01-06T06:07:42.364Z,2.11
2024-01-06T06:10:12.276Z,2.25
2024-01-06T06:12:39.159Z,2.17
2024-01-06T06:15:05.971Z,2.33
2024-01-06T06:17:32.869Z,2.66
2024-01-06T06:20:02.695Z,3.19
2024-01-06T06:22:32.554Z,2.74
2024-01-06T06:24:59.326Z,3.35
2024-01-06T06:27:29.115Z,3.65
2024-01-06T06:29:55.938Z,3.83
2024-01-06T06:32:22.782Z,3.90
2024-01-06T06:34:49.709Z,3.89
2024-01-06T06:37:16.527Z,3.92
2024-01-06T06:39:43.374Z,4.46
2024-01-06T06:42:13.345Z,4.19
2024-01-06T06:44:40.174Z,4.52
2024-01-06T06:47:06.947Z,4.86
2024-01-06T06:49:33.806Z,4.66
2024-01-06T06:52:00.720Z,5.18
2024-01-06T06:54:27.530Z,4.74
2024-01-06T06:56:54.333Z,4.47
2024-01-06T06:59:21.210Z,4.82
2024-01-06T07:01:48.012Z,4.92
2024-01-06T07:04:17.954Z,5.21
2024-01-06T07:06:47.768Z,6.15
2024-01-06T07:09:19.144Z,5.47
2024-01-06T07:11:47.016Z,5.14
2024-01-06T07:14:13.779Z,5.69
2024-01-06T07:16:40.554Z,5.72
2024-01-06T07:19:07.507Z,4.48
2024-01-06T07:21:34.353Z,3.73
2024-01-06T07:24:04.176Z,4.46
2024-01-06T07:26:33.972Z,5.80
2024-01-06T07:29:03.807Z,5.80
2024-01-06T07:31:30.660Z,3.80
2024-01-06T07:33:57.564Z,4.01
2024-01-06T07:36:27.467Z,4.89
2024-01-06T07:38:54.321Z,5.08
2024-01-06T07:41:21.074Z,4.68
2024-01-06T07:43:47.881Z,4.28
2024-01-06T07:46:15.668Z,3.77
2024-01-06T07:48:46.570Z,3.74
2024-01-06T07:51:16.576Z,4.18
2024-01-06T07:53:43.345Z,3.46
2024-01-06T07:56:11.328Z,4.10
2024-01-06T07:58:38.092Z,3.42
2024-01-06T08:01:07.962Z,4.00
2024-01-06T08:03:37.826Z,4.02
2024-01-06T08:06:07.824Z,4.29
2024-01-06T08:08:37.668Z,4.83
2024-01-06T08:11:04.500Z,5.00
2024-01-06T08:13:34.264Z,4.37
2024-01-06T08:16:01.068Z,3.61
2024-01-06T08:18:28.035Z,3.65
2024-01-06T08:20:57.938Z,3.43
2024-01-06T08:23:24.805Z,3.04
2024-01-06T08:25:51.638Z,2.78
2024-01-06T08:28:18.399Z,2.81
2024-01-06T08:30:48.361Z,2.73
2024-01-06T08:33:15.433Z,2.89
2024-01-06T08:35:45.341Z,3.71
2024-01-06T08:38:12.174Z,3.82
2024-01-06T08:40:42.018Z,3.95
2024-01-06T08:43:08.879Z,3.76
2024-01-06T08:45:35.885Z,3.80
2024-01-06T08:48:02.857Z,3.56
2024-01-06T08:50:29.670Z,4.26
2024-01-06T08:52:56.510Z,6.03
2024-01-06T08:55:23.291Z,3.35
2024-01-06T08:57:50.103Z,2.95
2024-01-06T09:00:16.961Z,2.92
2024-01-06T09:02:46.954Z,2.59
2024-01-06T09:05:32.168Z,2.54
2024-01-06T09:07:58.928Z,2.70
2024-01-06T09:10:25.682Z,3.34
2024-01-06T09:12:52.525Z,3.55
2024-01-06T09:15:19.391Z,3.32
2024-01-06T09:17:46.279Z,2.82
2024-01-06T09:20:13.074Z,3.27
2024-01-06T09:22:39.866Z,4.21
2024-01-06T09:25:06.617Z,4.89
2024-01-06T09:27:33.470Z,3.90
2024-01-06T09:30:00.332Z,3.54
2024-01-06T09:32:27.168Z,3.63
2024-01-06T09:34:54.221Z,3.57
2024-01-06T09:37:21.076Z,3.45
2024-01-06T09:39:47.935Z,3.29
2024-01-06T09:42:14.848Z,3.29
2024-01-06T09:44:41.734Z,2.81
2024-01-06T09:47:08.581Z,3.04
2024-01-06T09:49:35.362Z,2.86
2024-01-06T09:52:02.887Z,3.13
2024-01-06T09:54:29.799Z,3.27
2024-01-06T09:56:56.558Z,3.53
2024-01-06T09:59:23.336Z,3.77
2024-01-06T10:01:50.111Z,3.53
2024-01-06T10:04:20.512Z,2.90
2024-01-06T10:06:49.363Z,2.98
2024-01-06T10:09:16.203Z,2.91
2024-01-06T10:11:42.996Z,2.75
2024-01-06T10:14:09.802Z,2.61
2024-01-06T10:16:36.612Z,2.61
2024-01-06T10:19:03.473Z,2.39
2024-01-06T10:21:30.276Z,2.89
2024-01-06T10:23:57.028Z,2.93
2024-01-06T10:26:23.840Z,2.76
2024-01-06T10:28:50.671Z,4.35
2024-01-06T10:31:17.526Z,4.53
2024-01-06T10:33:44.548Z,7.77
2024-01-06T10:36:11.493Z,5.41
2024-01-06T10:38:38.280Z,3.43
2024-01-06T10:41:05.064Z,2.50
2024-01-06T10:43:31.865Z,2.40
2024-01-06T10:45:58.839Z,2.45
2024-01-06T10:48:25.825Z,2.27
2024-01-06T10:50:52.725Z,3.05
2024-01-06T10:53:19.574Z,4.06
2024-01-06T10:55:46.390Z,3.61
2024-01-06T10:58:13.260Z,4.60
2024-01-06T11:00:40.293Z,4.03
2024-01-06T11:03:07.508Z,3.65
2024-01-06T11:05:34.513Z,2.98
2024-01-06T11:08:01.412Z,3.87
2024-01-06T11:10:28.022Z,4.30
2024-01-06T11:12:54.772Z,3.64
2024-01-06T11:15:21.418Z,2.13
2024-01-06T11:17:48.275Z,1.72
2024-01-06T11:20:15.084Z,2.07
2024-01-06T11:22:41.768Z,2.32
2024-01-06T11:25:10.853Z,2.23
2024-01-06T11:30:28.309Z,1.96
2024-01-06T11:32:55.215Z,1.78
2024-01-06T11:35:21.976Z,1.80
2024-01-06T11:37:49.069Z,2.53
2024-01-06T11:40:15.679Z,3.76
2024-01-06T11:42:43.563Z,1.64
2024-01-06T11:45:10.288Z,1.68
2024-01-06T11:47:37.123Z,1.71
2024-01-06T11:50:03.785Z,2.33
2024-01-06T11:52:30.470Z,2.43
2024-01-06T11:54:57.273Z,2.43
2024-01-06T11:57:23.945Z,2.76
2024-01-06T11:59:50.706Z,2.19
2024-01-06T12:02:17.388Z,2.69
2024-01-06T12:04:44.043Z,3.17
2024-01-06T12:07:10.684Z,2.19
2024-01-06T12:09:37.613Z,2.20
2024-01-06T12:12:07.514Z,2.20
2024-01-06T12:14:34.382Z,1.66
2024-01-06T12:17:01.000Z,1.90
2024-01-06T12:19:27.726Z,2.27
2024-01-06T12:21:54.471Z,1.78
2024-01-06T12:24:21.108Z,1.29
2024-01-06T12:26:47.773Z,1.27
2024-01-06T12:29:15.222Z,1.42
2024-01-06T12:31:42.058Z,1.71
2024-01-06T12:34:08.906Z,1.20
2024-01-06T12:36:35.638Z,1.04
2024-01-06T12:39:02.310Z,1.14
2024-01-06T12:41:28.947Z,0.99
2024-01-06T12:43:55.588Z,1.23
2024-01-06T12:46:22.176Z,1.03
2024-01-06T12:48:48.927Z,1.06
2024-01-06T12:51:15.784Z,0.99
2024-01-06T12:53:42.426Z,1.06
2024-01-06T12:56:09.014Z,0.80
2024-01-06T12:58:35.653Z,0.96
2024-01-06T13:01:02.485Z,1.20
2024-01-06T13:03:29.290Z,0.90
2024-01-06T13:05:56.039Z,0.82
2024-01-06T13:08:22.655Z,1.04
2024-01-06T13:10:49.273Z,1.14
2024-01-06T13:13:15.942Z,1.11
2024-01-06T13:15:42.885Z,1.32
2024-01-06T13:18:09.825Z,1.12
2024-01-06T13:20:36.700Z,1.06
2024-01-06T13:23:03.445Z,1.08
2024-01-06T13:25:30.267Z,0.96
2024-01-06T13:27:57.138Z,1.09
2024-01-06T13:30:24.031Z,1.42
2024-01-06T13:32:50.915Z,1.24
2024-01-06T13:35:17.833Z,1.08
2024-01-06T13:37:44.672Z,1.17
2024-01-06T13:40:11.504Z,1.11
2024-01-06T13:42:38.331Z,0.93
2024-01-06T13:45:05.181Z,1.00
2024-01-06T13:47:31.956Z,0.95
2024-01-06T13:49:59.056Z,1.12
2024-01-06T13:52:25.981Z,1.14
2024-01-06T13:54:52.859Z,1.26
2024-01-06T13:57:19.695Z,1.20
2024-01-06T13:59:46.520Z,1.01
2024-01-06T14:02:13.305Z,1.03
2024-01-06T14:04:40.219Z,1.09
2024-01-06T14:07:07.064Z,1.07
2024-01-06T14:09:33.949Z,1.09
2024-01-06T14:12:00.797Z,1.34
2024-01-06T14:14:27.584Z,1.63
2024-01-06T14:16:54.377Z,1.63
2024-01-06T14:19:21.185Z,1.40
2024-01-06T14:21:48.037Z,1.22
2024-01-06T14:24:14.842Z,1.25
2024-01-06T14:26:41.729Z,1.37
2024-01-06T14:29:08.551Z,1.31
2024-01-06T14:31:35.498Z,1.43
2024-01-06T14:34:02.464Z,1.32
2024-01-06T14:36:29.461Z,1.34
2024-01-06T14:38:56.249Z,1.38
2024-01-06T14:41:23.102Z,1.83
2024-01-06T14:43:49.882Z,1.55
2024-01-06T14:46:16.703Z,1.79
2024-01-06T14:48:43.586Z,1.50
2024-01-06T14:51:13.499Z,1.18
2024-01-06T14:53:40.281Z,1.04
2024-01-06T14:56:07.109Z,1.00
2024-01-06T14:58:33.930Z,1.16
2024-01-06T15:01:00.891Z,1.40
2024-01-06T15:03:27.846Z,1.57
2024-01-06T15:05:54.717Z,1.88
2024-01-06T15:08:21.539Z,1.38
2024-01-06T15:10:48.385Z,1.29
2024-01-06T15:13:15.150Z,1.24
2024-01-06T15:15:41.979Z,1.39
2024-01-06T15:18:08.899Z,1.25
2024-01-06T15:20:35.748Z,1.41
2024-01-06T15:23:02.356Z,1.36
2024-01-06T15:25:28.975Z,1.21
2024-01-06T15:27:55.626Z,1.31
2024-01-06T15:30:22.329Z,1.22
2024-01-06T15:32:49.081Z,1.33
2024-01-06T15:35:15.733Z,1.38
2024-01-06T15:37:42.416Z,1.47
2024-01-06T15:40:09.174Z,1.25
2024-01-06T15:42:35.893Z,1.21
2024-01-06T15:45:02.641Z,1.67
2024-01-06T15:47:29.288Z,2.83
2024-01-06T15:49:56.057Z,3.75
2024-01-06T15:52:23.092Z,2.79
2024-01-06T15:54:49.860Z,2.82
2024-01-06T15:57:16.563Z,2.88
2024-01-06T15:59:43.269Z,2.56
2024-01-06T16:02:09.917Z,2.70
2024-01-06T16:04:36.627Z,2.46
2024-01-06T16:07:03.304Z,2.73
2024-01-06T16:09:30.054Z,2.17
2024-01-06T16:11:56.706Z,2.46
2024-01-06T16:14:23.277Z,2.53
2024-01-06T16:16:49.878Z,2.69
2024-01-06T16:19:16.663Z,2.58
2024-01-06T16:21:43.617Z,2.64
2024-01-06T16:24:10.443Z,2.91
2024-01-06T16:26:37.235Z,2.41
2024-01-06T16:29:04.061Z,3.01
2024-01-06T16:31:31.059Z,2.71
2024-01-06T16:33:57.935Z,2.48
2024-01-06T16:36:24.861Z,2.46
2024-01-06T16:38:51.743Z,1.83
2024-01-06T16:41:20.625Z,1.72
2024-01-06T16:43:47.597Z,1.66
2024-01-06T16:46:45.144Z,1.86
2024-01-06T16:49:14.788Z,1.62
2024-01-06T16:51:41.751Z,1.74
2024-01-06T16:54:08.473Z,1.77
2024-01-06T16:56:35.200Z,1.78
2024-01-06T16:59:01.886Z,1.94
2024-01-06T17:01:28.758Z,2.40
2024-01-06T17:03:55.917Z,3.28
2024-01-06T17:06:22.564Z,2.66
2024-01-06T17:08:49.255Z,2.85
2024-01-06T17:11:15.939Z,3.02
2024-01-06T17:13:42.579Z,2.58
2024-01-06T17:16:09.255Z,2.68
2024-01-06T17:18:36.087Z,2.81
2024-01-06T17:21:02.807Z,2.86
2024-01-06T17:23:29.443Z,2.21
2024-01-06T17:25:56.076Z,2.29
2024-01-06T17:28:22.845Z,2.58
2024-01-06T17:30:49.536Z,1.89
2024-01-06T17:33:16.336Z,1.66
2024-01-06T17:35:42.959Z,1.82
2024-01-06T17:38:09.723Z,1.69
2024-01-06T17:40:36.296Z,1.64
2024-01-06T17:43:03.061Z,1.57
2024-01-06T17:45:29.968Z,1.74
2024-01-06T17:47:56.844Z,2.08
2024-01-06T17:50:23.672Z,2.44
2024-01-06T17:52:53.482Z,3.01
2024-01-06T17:55:20.225Z,3.19
2024-01-06T17:57:47.040Z,2.97
2024-01-06T18:00:13.883Z,2.96
2024-01-06T18:02:40.642Z,2.43
2024-01-06T18:05:07.918Z,2.48
2024-01-06T18:07:34.855Z,2.15
2024-01-06T18:10:01.874Z,2.45
2024-01-06T18:12:28.719Z,2.36
2024-01-06T18:14:55.366Z,2.54
2024-01-06T18:17:21.916Z,2.29
2024-01-06T18:19:50.586Z,2.35
2024-01-06T18:22:17.225Z,2.35
2024-01-06T18:24:43.930Z,2.55
2024-01-06T18:27:10.589Z,2.27
2024-01-06T18:29:38.816Z,1.97
2024-01-06T18:32:05.525Z,2.01
2024-01-06T18:34:32.577Z,1.97
2024-01-06T18:36:59.558Z,2.05
2024-01-06T18:39:26.330Z,2.38
2024-01-06T18:41:53.028Z,2.32
2024-01-06T18:44:19.709Z,2.09
2024-01-06T18:46:47.887Z,1.97
2024-01-06T18:49:14.579Z,2.28
2024-01-06T18:51:41.220Z,2.64
2024-01-06T18:54:07.905Z,3.30
2024-01-06T18:56:34.492Z,3.52
2024-01-06T18:59:01.258Z,4.05
2024-01-06T19:01:30.393Z,4.81
2024-01-06T19:03:57.136Z,5.03
2024-01-06T19:06:23.860Z,4.05
2024-01-06T19:08:50.527Z,3.90
2024-01-06T19:11:17.305Z,3.96
2024-01-06T19:13:44.105Z,4.20
2024-01-06T19:16:10.919Z,4.15
2024-01-06T19:18:37.785Z,4.33
2024-01-06T19:21:04.707Z,4.08
2024-01-06T19:23:31.498Z,3.66
2024-01-06T19:25:58.277Z,3.10
2024-01-06T19:28:25.020Z,3.00
2024-01-06T19:30:51.934Z,2.80
2024-01-06T19:33:18.899Z,2.37
2024-01-06T19:35:45.740Z,2.36
2024-01-06T19:38:12.513Z,2.05
2024-01-06T19:40:39.308Z,1.93
2024-01-06T19:43:06.147Z,1.74
2024-01-06T19:45:33.015Z,2.06
2024-01-06T19:47:59.893Z,2.16
2024-01-06T19:50:29.767Z,2.02
2024-01-06T19:52:56.544Z,2.05
2024-01-06T19:55:23.336Z,2.06
2024-01-06T19:57:50.123Z,2.40
2024-01-06T20:00:16.974Z,2.74
2024-01-06T20:02:43.725Z,3.39
2024-01-06T20:05:10.474Z,2.45
2024-01-06T20:07:37.304Z,2.22
2024-01-06T20:10:04.263Z,2.59
2024-01-06T20:12:31.089Z,2.57
2024-01-06T20:14:57.939Z,2.64
2024-01-06T20:17:24.734Z,3.01
2024-01-06T20:19:51.572Z,2.85
2024-01-06T20:22:18.397Z,3.41
2024-01-06T20:24:45.284Z,3.34
2024-01-06T20:27:12.134Z,3.79
2024-01-06T20:29:41.904Z,4.73
2024-01-06T20:32:08.889Z,5.38
2024-01-06T20:34:36.075Z,5.30
2024-01-06T20:37:02.959Z,3.88
2024-01-06T20:39:29.833Z,3.66
2024-01-06T20:41:56.694Z,4.04
2024-01-06T20:44:23.591Z,4.45
2024-01-06T20:46:50.482Z,3.97
2024-01-06T20:49:17.300Z,4.32
2024-01-06T20:51:44.266Z,5.67
2024-01-06T20:54:11.074Z,5.16
2024-01-06T20:56:37.982Z,3.75
2024-01-06T20:59:04.790Z,3.25
2024-01-06T21:01:31.729Z,3.24
2024-01-06T21:03:58.751Z,3.43
2024-01-06T21:06:27.297Z,3.27
2024-01-06T21:08:54.171Z,3.32
2024-01-06T21:11:21.051Z,3.41
2024-01-06T21:13:49.998Z,3.44
2024-01-06T21:16:16.831Z,3.30
2024-01-06T21:18:43.593Z,3.36
2024-01-06T21:21:10.420Z,3.32
2024-01-06T21:23:44.909Z,3.54
2024-01-06T21:26:27.403Z,3.49
2024-01-06T21:28:54.272Z,3.54
2024-01-06T21:31:21.148Z,3.79
2024-01-06T21:33:48.038Z,3.83
2024-01-06T21:36:15.010Z,4.53
2024-01-06T21:38:41.729Z,4.36
2024-01-06T21:41:08.388Z,4.60
2024-01-06T21:43:35.021Z,4.62
2024-01-06T21:46:02.110Z,4.41
2024-01-06T21:48:28.910Z,4.08
2024-01-06T21:50:56.001Z,3.66
2024-01-06T21:53:23.088Z,3.47
2024-01-06T21:55:49.804Z,3.24
2024-01-06T21:58:16.449Z,3.20
2024-01-06T22:00:47.422Z,3.20
2024-01-06T22:03:17.356Z,3.15
2024-01-06T22:08:34.918Z,3.21
2024-01-06T22:11:05.044Z,3.00
2024-01-06T22:13:34.417Z,3.00
2024-01-06T22:16:04.549Z,3.09
2024-01-06T22:18:31.650Z,3.19
2024-01-06T22:20:58.466Z,2.93
2024-01-06T22:23:28.382Z,2.89
2024-01-06T22:25:55.009Z,2.65
2024-01-06T22:28:21.955Z,2.87
2024-01-06T22:30:48.855Z,2.79
2024-01-06T22:33:18.353Z,2.45
2024-01-06T22:35:45.252Z,2.65
2024-01-06T22:38:11.924Z,2.63
2024-01-06T22:40:39.061Z,2.64
2024-01-06T22:43:05.806Z,2.38
2024-01-06T22:45:32.713Z,2.40
2024-01-06T22:47:59.532Z,2.25
2024-01-06T22:50:26.183Z,2.26
2024-01-06T22:52:52.788Z,2.45
2024-01-06T22:55:19.365Z,2.19
2024-01-06T22:57:46.095Z,2.46
2024-01-06T23:00:12.900Z,2.43
2024-01-06T23:02:39.516Z,2.40
2024-01-06T23:05:06.109Z,2.47
2024-01-06T23:07:32.821Z,2.75
2024-01-06T23:09:59.483Z,2.55
2024-01-06T23:12:26.123Z,2.56
2024-01-06T23:14:52.770Z,2.36
2024-01-06T23:17:19.402Z,2.64
2024-01-06T23:19:46.642Z,2.61
2024-01-06T23:22:13.626Z,2.52
2024-01-06T23:24:40.558Z,2.61
2024-01-06T23:27:07.355Z,2.66
2024-01-06T23:29:37.526Z,3.16
2024-01-06T23:32:05.222Z,3.20
2024-01-06T23:34:38.153Z,3.50
2024-01-06T23:37:09.068Z,3.86
2024-01-06T23:39:35.725Z,4.04
2024-01-06T23:42:02.360Z,3.87
2024-01-06T23:44:29.063Z,4.09
2024-01-06T23:46:55.660Z,4.24
2024-01-06T23:49:22.513Z,4.26
2024-01-06T23:51:49.281Z,4.26
2024-01-06T23:54:15.928Z,4.33
2024-01-06T23:56:42.493Z,4.15
2024-01-06T23:59:09.146Z,4.30
